Aérodrome :







RETROUVEZ-NOUS SUR...

 
LOGIN :

S'inscrire | Disclaimer

   EN    FR    IT 

 









Légende :    VFR   VFR Marginal   IFR   IFR Intensif   IFR Très Intensif
Visi : 
Plafond : 
>= 8 km
>= 3000ft
5 à 8 km
1000 à 3000 ft
1500m à 5 km
500 à 1000 ft
800 à 1500m
200 à 500 ft
< 800m
< 200 ft
Symboles :   Orages  Brouillard  Fortes neiges  Fortes précipitations  Vent > 20 kt






- Altitude de l'aérodrome : 827 ft


KDDH - William H. Morse State

DERNIER METAR :
  • 261719Z AUTO 34003KT 3SM -RA BR BKN023 OVC035 03/02 A2995 RMK AO2 RAB08 P0000 T00330017

METARs EXPIRÉS :
  • 261654Z AUTO 36003KT 2SM BR SCT024 OVC035 03/02 A2995 RMK AO2 RAB00E11 SLP148 P0000 T00330017
  • 261633Z AUTO 36003KT 2SM BR SCT024 OVC035 03/01 A2996 RMK AO2 RAB00E11 P0000 T00330011
  • 261619Z AUTO 00000KT 1 1/2SM BR SCT022 OVC036 03/02 A2996 RMK AO2 RAB00E11 P0000 T00330017
  • 261606Z AUTO 36003KT 1 1/2SM -RA BR BKN022 OVC036 03/01 A2996 RMK AO2 RAB00 P0000 T00330011
  • 261554Z AUTO 36003KT 2SM BR OVC022 03/01 A2996 RMK AO2 SLP152 T00330011
  • 261533Z AUTO 02003KT 2 1/2SM BR OVC020 03/01 A2997 RMK AO2 T00330011
  • 261454Z AUTO 00000KT 3SM BR OVC021 03/01 A2996 RMK AO2 SLP151 60001 I3000 T00280011 53001

TAF N/A



MET'MAP, la Météo Aéronautique d'un coup d'oeil ! - Copyright ORBIFLY Décembre 2007 - Disclaimer

ORBIFLY MET'MAP TEAM :

Programmation & Développement : Alexandra Zaïnal
Sur une idée originale de : Baudouin d'Aumeries
Assistance à la programmation : Marc-Olivier Méhu
Soutien technique & logistique : Manuel Goepfert

Contact : metmap@orbifly.com




SOURCES & CREDITS :

   NOAA